createdAt,value
2023-04-27T00:01:59.662Z,6.3
2023-04-27T00:04:00.615Z,6.3
2023-04-27T00:06:00.328Z,6.3
2023-04-27T00:08:00.011Z,6.2
2023-04-27T00:11:59.516Z,6.1
2023-04-27T00:13:59.754Z,6.1
2023-04-27T00:15:59.569Z,6
2023-04-27T00:17:59.511Z,6
2023-04-27T00:19:59.518Z,6.1
2023-04-27T00:21:59.781Z,6
2023-04-27T00:23:59.508Z,5.9
2023-04-27T00:25:59.519Z,5.9
2023-04-27T00:27:59.864Z,5.9
2023-04-27T00:29:59.497Z,5.8
2023-04-27T00:33:59.491Z,5.8
2023-04-27T00:35:59.518Z,5.8
2023-04-27T00:38:00.359Z,5.7
2023-04-27T00:39:59.511Z,5.7
2023-04-27T00:41:59.795Z,5.7
2023-04-27T00:44:00.455Z,5.7
2023-04-27T00:47:59.583Z,5.5
2023-04-27T00:49:59.528Z,5.5
2023-04-27T00:51:59.519Z,5.4
2023-04-27T00:53:59.515Z,5.5
2023-04-27T00:56:00.317Z,5.6
2023-04-27T00:57:59.483Z,5.7
2023-04-27T00:59:59.547Z,5.6
2023-04-27T01:01:59.939Z,5.6
2023-04-27T01:04:00.468Z,5.5
2023-04-27T01:05:59.527Z,5.6
2023-04-27T01:07:59.798Z,5.4
2023-04-27T01:09:59.531Z,5.4
2023-04-27T01:11:59.525Z,5.4
2023-04-27T01:13:59.513Z,5.2
2023-04-27T01:15:59.498Z,5.2
2023-04-27T01:17:59.577Z,5.1
2023-04-27T01:19:59.523Z,5.1
2023-04-27T01:21:59.996Z,5
2023-04-27T01:23:59.517Z,4.8
2023-04-27T01:25:59.525Z,4.8
2023-04-27T01:27:59.534Z,4.7
2023-04-27T01:29:59.514Z,4.7
2023-04-27T01:31:59.508Z,4.6
2023-04-27T01:35:59.527Z,4.6
2023-04-27T01:37:59.508Z,4.6
2023-04-27T01:39:59.492Z,4.8
2023-04-27T01:41:59.515Z,4.7
2023-04-27T01:43:59.529Z,4.8
2023-04-27T01:46:00.315Z,4.9
2023-04-27T01:47:59.526Z,4.9
2023-04-27T01:49:59.500Z,4.8
2023-04-27T01:57:59.504Z,4.9
2023-04-27T01:59:59.560Z,5
2023-04-27T02:02:00.294Z,4.9
2023-04-27T02:03:59.589Z,4.9
2023-04-27T02:05:59.488Z,4.8
2023-04-27T02:07:59.550Z,4.9
2023-04-27T02:11:59.511Z,4.8
2023-04-27T02:14:00.111Z,4.7
2023-04-27T02:15:59.560Z,4.7
2023-04-27T02:17:59.804Z,4.8
2023-04-27T02:19:59.521Z,4.8
2023-04-27T02:23:59.540Z,4.8
2023-04-27T02:25:59.543Z,4.9
2023-04-27T02:29:59.517Z,4.9
2023-04-27T02:31:59.610Z,5
2023-04-27T02:33:59.504Z,5
2023-04-27T02:35:59.584Z,4.9
2023-04-27T02:37:59.537Z,4.9
2023-04-27T02:39:59.535Z,4.9
2023-04-27T02:41:59.510Z,4.8
2023-04-27T02:43:59.525Z,4.7
2023-04-27T02:45:59.492Z,4.7
2023-04-27T02:48:00.473Z,4.8
2023-04-27T02:51:59.540Z,4.6
2023-04-27T02:54:00.340Z,4.5
2023-04-27T02:55:59.541Z,4.5
2023-04-27T02:57:59.841Z,4.4
2023-04-27T02:59:59.537Z,4.3
2023-04-27T03:01:59.546Z,4.3
2023-04-27T03:03:59.623Z,4.4
2023-04-27T03:05:59.534Z,4.3
2023-04-27T03:09:59.514Z,4.4
2023-04-27T03:11:59.980Z,4.1
2023-04-27T03:13:59.494Z,4.4
2023-04-27T03:15:59.513Z,4.4
2023-04-27T03:17:59.554Z,4.4
2023-04-27T03:19:59.538Z,4.3
2023-04-27T03:23:59.522Z,4.2
2023-04-27T03:25:59.531Z,4.4
2023-04-27T03:27:59.557Z,4.4
2023-04-27T03:29:59.524Z,4.4
2023-04-27T03:32:00.749Z,4.4
2023-04-27T03:33:59.845Z,4.3
2023-04-27T03:35:59.908Z,4.3
2023-04-27T03:39:59.512Z,4.2
2023-04-27T03:41:59.501Z,4.2
2023-04-27T03:45:59.528Z,4.4
2023-04-27T03:47:59.579Z,4.4
2023-04-27T03:49:59.546Z,4.4
2023-04-27T03:51:59.978Z,4.5
2023-04-27T03:53:59.535Z,4.5
2023-04-27T03:55:59.925Z,4.6
2023-04-27T03:59:59.623Z,4.8
2023-04-27T04:02:01.052Z,4.8
2023-04-27T04:03:59.705Z,4.8
2023-04-27T04:05:59.542Z,4.9
2023-04-27T04:07:59.902Z,4.9
2023-04-27T04:10:00.312Z,5
2023-04-27T04:11:59.562Z,5
2023-04-27T04:13:59.540Z,4.9
2023-04-27T04:15:59.548Z,4.9
2023-04-27T04:19:59.525Z,4.9
2023-04-27T04:23:59.547Z,4.8
2023-04-27T04:27:59.965Z,4.8
2023-04-27T04:35:59.535Z,4.9
2023-04-27T04:39:59.525Z,4.9
2023-04-27T04:41:59.551Z,5
2023-04-27T04:43:59.557Z,5.1
2023-04-27T04:45:59.522Z,5.1
2023-04-27T04:48:00.422Z,5.4
2023-04-27T04:49:59.532Z,5.5
2023-04-27T04:51:59.523Z,5.5
2023-04-27T04:54:01.676Z,5.6
2023-04-27T04:55:59.548Z,5.6
2023-04-27T04:57:59.969Z,5.7
2023-04-27T04:59:59.580Z,5.8
2023-04-27T05:01:59.564Z,5.7
2023-04-27T05:03:59.630Z,5.8
2023-04-27T05:05:59.539Z,5.7
2023-04-27T05:07:59.972Z,5.7
2023-04-27T05:09:59.519Z,5.8
2023-04-27T05:11:59.995Z,5.7
2023-04-27T05:13:59.533Z,5.7
2023-04-27T05:15:59.527Z,5.8
2023-04-27T05:17:59.579Z,5.9
2023-04-27T05:19:59.506Z,6.1
2023-04-27T05:21:59.517Z,6.3
2023-04-27T05:23:59.505Z,6.1
2023-04-27T05:25:59.534Z,6.2
2023-04-27T05:28:00.416Z,6.3
2023-04-27T05:29:59.536Z,6.3
2023-04-27T05:31:59.606Z,6.3
2023-04-27T05:33:59.526Z,6.4
2023-04-27T05:37:59.882Z,6.5
2023-04-27T05:39:59.523Z,6.6
2023-04-27T05:41:59.539Z,6.5
2023-04-27T05:43:59.531Z,6.5
2023-04-27T05:45:59.938Z,6.5
2023-04-27T05:47:59.583Z,6.7
2023-04-27T05:49:59.999Z,6.9
2023-04-27T05:51:59.520Z,7
2023-04-27T05:53:59.950Z,7.1
2023-04-27T05:55:59.509Z,7.2
2023-04-27T05:58:07.461Z,7.1
2023-04-27T06:00:00.315Z,7.2
2023-04-27T06:04:00.451Z,7.3
2023-04-27T06:05:59.543Z,7.4
2023-04-27T06:08:00.026Z,7.5
2023-04-27T06:09:59.540Z,7.5
2023-04-27T06:11:59.553Z,7.6
2023-04-27T06:13:59.525Z,7.6
2023-04-27T06:16:00.442Z,7.6
2023-04-27T06:17:59.912Z,7.6
2023-04-27T06:19:59.956Z,7.7
2023-04-27T06:21:59.928Z,7.7
2023-04-27T06:23:59.543Z,7.8
2023-04-27T06:25:59.962Z,7.9
2023-04-27T06:28:00.346Z,7.9
2023-04-27T06:29:59.549Z,8.1
2023-04-27T06:32:00.211Z,8.1
2023-04-27T06:33:59.526Z,8.1
2023-04-27T06:35:59.565Z,8.2
2023-04-27T06:37:59.552Z,8.2
2023-04-27T06:39:59.529Z,8.4
2023-04-27T06:41:59.547Z,8.6
2023-04-27T06:43:59.547Z,8
2023-04-27T06:45:59.584Z,8.3
2023-04-27T06:48:00.488Z,8.5
2023-04-27T06:49:59.521Z,8.5
2023-04-27T06:51:59.532Z,8.7
2023-04-27T06:53:59.527Z,8.7
2023-04-27T06:57:59.538Z,8.3
2023-04-27T06:59:59.827Z,8.5
2023-04-27T07:03:59.610Z,9.1
2023-04-27T07:06:00.098Z,8.9
2023-04-27T07:08:01.535Z,9.2
2023-04-27T07:10:00.055Z,9.4
2023-04-27T07:11:59.551Z,9.1
2023-04-27T07:14:03.674Z,9.3
2023-04-27T07:16:00.092Z,9.6
2023-04-27T07:17:59.571Z,9.2
2023-04-27T07:20:00.012Z,9.6
2023-04-27T07:21:59.554Z,9.8
2023-04-27T07:25:59.569Z,10
2023-04-27T07:27:59.548Z,10.3
2023-04-27T07:29:59.591Z,9.6
2023-04-27T07:31:59.602Z,10.3
2023-04-27T07:33:59.531Z,10.3
2023-04-27T07:37:59.936Z,10.9
2023-04-27T07:39:59.555Z,10.7
2023-04-27T07:41:59.571Z,11
2023-04-27T07:44:00.034Z,10.6
2023-04-27T07:45:59.567Z,10.7
2023-04-27T07:48:00.034Z,11.1
2023-04-27T07:51:59.993Z,11.1
2023-04-27T07:53:59.579Z,10.7
2023-04-27T07:55:59.532Z,11
2023-04-27T07:58:00.037Z,11.2
2023-04-27T07:59:59.567Z,11.3
2023-04-27T08:03:59.846Z,11.5
2023-04-27T08:05:59.830Z,11.6
2023-04-27T08:07:59.594Z,11.6
2023-04-27T08:09:59.533Z,11.7
2023-04-27T08:11:59.571Z,11.7
2023-04-27T08:13:59.559Z,11.8
2023-04-27T08:15:59.797Z,11.7
2023-04-27T08:18:00.059Z,11.2
2023-04-27T08:19:59.576Z,11.4
2023-04-27T08:21:59.552Z,11.7
2023-04-27T08:23:59.580Z,11.8
2023-04-27T08:25:59.587Z,12
2023-04-27T08:27:59.552Z,11.9
2023-04-27T08:29:59.979Z,11.9
2023-04-27T08:31:59.651Z,11.7
2023-04-27T08:33:59.572Z,11.6
2023-04-27T08:35:59.582Z,11.6
2023-04-27T08:37:59.588Z,11.6
2023-04-27T08:39:59.565Z,12
2023-04-27T08:42:00.319Z,12.3
2023-04-27T08:43:59.719Z,12.4
2023-04-27T08:49:59.559Z,12.4
2023-04-27T08:52:00.304Z,12.5
2023-04-27T08:53:59.570Z,12.6
2023-04-27T08:55:59.567Z,12.7
2023-04-27T08:57:59.572Z,12.7
2023-04-27T09:04:00.344Z,12.8
2023-04-27T09:06:04.970Z,12.8
2023-04-27T09:07:59.593Z,12.9
2023-04-27T09:11:59.566Z,12.4
2023-04-27T09:13:59.579Z,12.6
2023-04-27T09:15:59.835Z,12.7
2023-04-27T09:17:59.601Z,12.9
2023-04-27T09:19:59.555Z,13.1
2023-04-27T09:21:59.553Z,13.1
2023-04-27T09:23:59.938Z,13.1
2023-04-27T09:25:59.554Z,13.3
2023-04-27T09:27:59.557Z,13.5
2023-04-27T09:29:59.583Z,13.5
2023-04-27T09:32:00.474Z,13.3
2023-04-27T09:35:59.574Z,13.1
2023-04-27T09:37:59.597Z,13.1
2023-04-27T09:39:59.718Z,12.8
2023-04-27T09:41:59.958Z,13.1
2023-04-27T09:46:00.050Z,13.4
2023-04-27T09:47:59.564Z,13
2023-04-27T09:49:59.573Z,13.3
2023-04-27T09:51:59.561Z,13.4
2023-04-27T09:53:59.584Z,13.6
2023-04-27T09:55:59.976Z,13.5
2023-04-27T09:57:59.592Z,13.7
2023-04-27T09:59:59.979Z,14
2023-04-27T10:02:01.359Z,14.1
2023-04-27T10:03:59.643Z,14.1
2023-04-27T10:08:00.435Z,14.1
2023-04-27T10:10:00.541Z,14
2023-04-27T10:15:59.582Z,14.3
2023-04-27T10:17:59.621Z,14.3
2023-04-27T10:20:00.036Z,14.2
2023-04-27T10:21:59.559Z,13.7
2023-04-27T10:23:59.595Z,13.7
2023-04-27T10:25:59.579Z,13.7
2023-04-27T10:29:59.616Z,13.6
2023-04-27T10:31:59.585Z,13.7
2023-04-27T10:34:00.276Z,13.7
2023-04-27T10:35:59.565Z,13.5
2023-04-27T10:40:00.226Z,13.5
2023-04-27T10:42:00.421Z,13.4
2023-04-27T10:43:59.569Z,13.5
2023-04-27T10:45:59.573Z,13.7
2023-04-27T10:49:59.585Z,13.8
2023-04-27T10:51:59.578Z,13.8
2023-04-27T10:53:59.589Z,13.7
2023-04-27T10:59:59.592Z,13.5
2023-04-27T11:02:00.488Z,13.5
2023-04-27T11:04:00.029Z,13.6
2023-04-27T11:06:00.062Z,13.5
2023-04-27T11:07:59.600Z,13.5
2023-04-27T11:09:59.601Z,13.8
2023-04-27T11:11:59.576Z,13.8
2023-04-27T11:13:59.663Z,14
2023-04-27T11:15:59.589Z,14
2023-04-27T11:17:59.822Z,13.9
2023-04-27T11:20:00.070Z,13.8
2023-04-27T11:22:00.488Z,13.7
2023-04-27T11:23:59.790Z,13.8
2023-04-27T11:25:59.592Z,13.8
2023-04-27T11:27:59.567Z,13.6
2023-04-27T11:29:59.592Z,13.6
2023-04-27T11:31:59.659Z,13.7
2023-04-27T11:33:59.570Z,13.7
2023-04-27T11:35:59.565Z,13.7
2023-04-27T11:37:59.593Z,13.7
2023-04-27T11:39:59.998Z,13.8
2023-04-27T11:41:59.584Z,13.9
2023-04-27T11:43:59.575Z,14
2023-04-27T11:46:00.349Z,14.1
2023-04-27T11:47:59.618Z,14.2
2023-04-27T11:49:59.595Z,14.3
2023-04-27T11:51:59.606Z,14.4
2023-04-27T11:55:59.594Z,14.4
2023-04-27T11:57:59.568Z,14.4
2023-04-27T11:59:59.570Z,14.4
2023-04-27T12:02:00.117Z,14.5
2023-04-27T12:04:02.303Z,14.5
2023-04-27T12:06:07.627Z,14.6
2023-04-27T12:07:59.599Z,14.7
2023-04-27T12:10:00.992Z,14.7
2023-04-27T12:11:59.616Z,14.7
2023-04-27T12:13:59.599Z,14.7
2023-04-27T12:16:01.054Z,14.9
2023-04-27T12:17:59.637Z,14.8
2023-04-27T12:20:00.086Z,14.7
2023-04-27T12:21:59.594Z,14.7
2023-04-27T12:23:59.619Z,14.7
2023-04-27T12:25:59.607Z,14.7
2023-04-27T12:28:00.406Z,14.8
2023-04-27T12:30:00.103Z,14.8
2023-04-27T12:32:00.181Z,14.9
2023-04-27T12:34:00.089Z,14.9
2023-04-27T12:36:00.456Z,15.1
2023-04-27T12:37:59.607Z,15.1
2023-04-27T12:39:59.601Z,15.2
2023-04-27T12:42:00.003Z,15.2
2023-04-27T12:44:00.006Z,15.3
2023-04-27T12:45:59.603Z,15.3
2023-04-27T12:49:59.815Z,15.5
2023-04-27T12:51:59.576Z,15.5
2023-04-27T12:54:00.971Z,15.5
2023-04-27T12:55:59.620Z,15.4
2023-04-27T12:57:59.606Z,15.4
2023-04-27T13:01:59.619Z,15.6
2023-04-27T13:05:59.863Z,15.6
2023-04-27T13:08:00.586Z,15.6
2023-04-27T13:09:59.635Z,15.5
2023-04-27T13:13:59.601Z,15.6
2023-04-27T13:15:59.974Z,15.7
2023-04-27T13:17:59.645Z,15.7
2023-04-27T13:19:59.622Z,15.8
2023-04-27T13:21:59.611Z,15.9
2023-04-27T13:24:00.433Z,15.8
2023-04-27T13:25:59.618Z,15.7
2023-04-27T13:27:59.592Z,15.6
2023-04-27T13:29:59.606Z,15.4
2023-04-27T13:32:00.499Z,15.5
2023-04-27T13:33:59.981Z,15.5
2023-04-27T13:35:59.617Z,15.4
2023-04-27T13:38:00.156Z,15.4
2023-04-27T13:39:59.608Z,15.5
2023-04-27T13:41:59.679Z,15.5
2023-04-27T13:43:59.605Z,15.5
2023-04-27T13:46:01.036Z,15.5
2023-04-27T13:47:59.658Z,15.5
2023-04-27T13:49:59.621Z,15.5
2023-04-27T13:52:00.039Z,15.5
2023-04-27T13:53:59.609Z,15.6
2023-04-27T13:55:59.609Z,15.7
2023-04-27T13:57:59.597Z,15.7
2023-04-27T13:59:59.620Z,15.7
2023-04-27T14:01:59.586Z,15.6
2023-04-27T14:03:59.760Z,15.5
2023-04-27T14:05:59.618Z,15.5
2023-04-27T14:07:59.662Z,15.3
2023-04-27T14:10:00.049Z,15.4
2023-04-27T14:11:59.611Z,15.4
2023-04-27T14:13:59.624Z,15.5
2023-04-27T14:16:00.866Z,15.5
2023-04-27T14:18:00.080Z,15.5
2023-04-27T14:20:00.060Z,15.5
2023-04-27T14:21:59.620Z,15.6
2023-04-27T14:24:00.090Z,15.6
2023-04-27T14:25:59.616Z,15.7
2023-04-27T14:27:59.597Z,15.8
2023-04-27T14:29:59.625Z,15.8
2023-04-27T14:31:59.609Z,15.9
2023-04-27T14:33:59.607Z,15.9
2023-04-27T14:35:59.657Z,15.6
2023-04-27T14:38:00.582Z,15.5
2023-04-27T14:39:59.595Z,15.5
2023-04-27T14:41:59.617Z,15.5
2023-04-27T14:44:00.035Z,15.6
2023-04-27T14:46:12.330Z,15.7
2023-04-27T14:47:59.617Z,15.8
2023-04-27T14:50:00.136Z,15.8
2023-04-27T14:51:59.598Z,15.8
2023-04-27T14:54:00.069Z,15.8
2023-04-27T14:55:59.592Z,15.7
2023-04-27T14:59:59.628Z,15.6
2023-04-27T15:02:00.027Z,15.6
2023-04-27T15:03:59.778Z,15.6
2023-04-27T15:05:59.629Z,15.6
2023-04-27T15:07:59.626Z,15.6
2023-04-27T15:10:00.093Z,15.6
2023-04-27T15:11:59.929Z,15.5
2023-04-27T15:13:59.632Z,15.5
2023-04-27T15:15:59.991Z,15.5
2023-04-27T15:19:59.797Z,15.4
2023-04-27T15:22:00.480Z,15.5
2023-04-27T15:23:59.603Z,15.5
2023-04-27T15:25:59.604Z,15.6
2023-04-27T15:28:00.501Z,15.6
2023-04-27T15:29:59.628Z,15.6
2023-04-27T15:32:00.468Z,15.7
2023-04-27T15:33:59.605Z,15.7
2023-04-27T15:36:00.076Z,15.7
2023-04-27T15:37:59.623Z,15.7
2023-04-27T15:40:00.487Z,15.7
2023-04-27T15:41:59.994Z,15.6
2023-04-27T15:43:59.650Z,15.6
2023-04-27T15:45:59.597Z,15.7
2023-04-27T15:48:00.349Z,15.7
2023-04-27T15:49:59.604Z,15.7
2023-04-27T15:51:59.603Z,15.7
2023-04-27T15:53:59.643Z,15.6
2023-04-27T15:55:59.627Z,15.7
2023-04-27T15:59:59.998Z,15.7
2023-04-27T16:01:59.664Z,15.7
2023-04-27T16:03:59.709Z,15.7
2023-04-27T16:06:00.098Z,15.7
2023-04-27T16:07:59.642Z,15.7
2023-04-27T16:09:59.630Z,15.7
2023-04-27T16:11:59.626Z,15.7
2023-04-27T16:13:59.707Z,15.7
2023-04-27T16:15:59.610Z,15.7
2023-04-27T16:18:00.039Z,15.6
2023-04-27T16:20:00.067Z,15.6
2023-04-27T16:21:59.628Z,15.6
2023-04-27T16:24:00.118Z,15.6
2023-04-27T16:25:59.990Z,15.6
2023-04-27T16:28:00.119Z,15.5
2023-04-27T16:29:59.636Z,15.4
2023-04-27T16:31:59.858Z,15.4
2023-04-27T16:34:00.007Z,15.3
2023-04-27T16:36:00.030Z,15.3
2023-04-27T16:37:59.628Z,15.3
2023-04-27T16:39:59.619Z,15.3
2023-04-27T16:41:59.630Z,15.3
2023-04-27T16:43:59.794Z,15.3
2023-04-27T16:45:59.669Z,15.3
2023-04-27T16:47:59.689Z,15.2
2023-04-27T16:49:59.650Z,15.2
2023-04-27T16:53:59.632Z,15.3
2023-04-27T16:56:00.124Z,15.3
2023-04-27T16:58:00.267Z,15.3
2023-04-27T16:59:59.837Z,15.2
2023-04-27T17:02:06.255Z,15.2
2023-04-27T17:03:59.763Z,15.2
2023-04-27T17:05:59.668Z,15.2
2023-04-27T17:07:59.607Z,15.1
2023-04-27T17:09:59.663Z,15.1
2023-04-27T17:11:59.617Z,15.1
2023-04-27T17:13:59.639Z,15.1
2023-04-27T17:15:59.661Z,15.1
2023-04-27T17:25:59.640Z,15
2023-04-27T17:28:01.559Z,15
2023-04-27T17:29:59.643Z,15
2023-04-27T17:32:00.393Z,15
2023-04-27T17:33:59.601Z,15
2023-04-27T17:36:00.160Z,14.9
2023-04-27T17:37:59.644Z,14.9
2023-04-27T17:39:59.625Z,14.9
2023-04-27T17:41:59.644Z,14.8
2023-04-27T17:43:59.641Z,14.8
2023-04-27T17:46:00.125Z,14.8
2023-04-27T17:47:59.707Z,14.7
2023-04-27T17:49:59.628Z,14.6
2023-04-27T17:51:59.610Z,14.6
2023-04-27T17:53:59.647Z,14.5
2023-04-27T17:56:00.157Z,14.4
2023-04-27T17:57:59.622Z,14.4
2023-04-27T17:59:59.647Z,14.4
2023-04-27T18:01:59.636Z,14.4
2023-04-27T18:04:03.109Z,14.3
2023-04-27T18:05:59.646Z,14.1
2023-04-27T18:07:59.641Z,14
2023-04-27T18:09:59.611Z,13.8
2023-04-27T18:12:00.023Z,13.8
2023-04-27T18:14:00.112Z,13.7
2023-04-27T18:15:59.666Z,13.7
2023-04-27T18:17:59.719Z,13.5
2023-04-27T18:20:07.926Z,13.4
2023-04-27T18:22:00.950Z,13.3
2023-04-27T18:24:00.081Z,13.3
2023-04-27T18:25:59.642Z,13.2
2023-04-27T18:28:00.086Z,13.2
2023-04-27T18:29:59.646Z,13.1
2023-04-27T18:31:59.644Z,13.1
2023-04-27T18:33:59.622Z,13
2023-04-27T18:36:00.415Z,13
2023-04-27T18:37:59.611Z,12.8
2023-04-27T18:42:00.091Z,12.6
2023-04-27T18:46:00.174Z,12.5
2023-04-27T18:47:59.642Z,12.5
2023-04-27T18:51:59.611Z,12.3
2023-04-27T18:53:59.656Z,12.4
2023-04-27T18:56:00.199Z,12.4
2023-04-27T18:57:59.624Z,12.3
2023-04-27T18:59:59.651Z,12.3
2023-04-27T19:02:00.349Z,12.3
2023-04-27T19:03:59.824Z,12.3
2023-04-27T19:05:59.614Z,12.2
2023-04-27T19:08:00.236Z,12.2
2023-04-27T19:09:59.620Z,12.2
2023-04-27T19:12:03.091Z,12.2
2023-04-27T19:15:59.610Z,12.1
2023-04-27T19:18:06.800Z,12
2023-04-27T19:20:00.419Z,11.9
2023-04-27T19:21:59.623Z,11.9
2023-04-27T19:27:59.902Z,11.8
2023-04-27T19:29:59.639Z,11.7
2023-04-27T19:32:00.338Z,11.7
2023-04-27T19:34:04.030Z,11.6
2023-04-27T19:35:59.660Z,11.4
2023-04-27T19:37:59.630Z,11.4
2023-04-27T19:39:59.629Z,11.4
2023-04-27T19:42:00.096Z,11.4
2023-04-27T19:43:59.646Z,11.3
2023-04-27T19:45:59.685Z,11.3
2023-04-27T19:47:59.683Z,11.3
2023-04-27T19:50:00.378Z,11.2
2023-04-27T19:54:00.175Z,11.2
2023-04-27T19:56:00.832Z,11.3
2023-04-27T19:57:59.635Z,11.3
2023-04-27T19:59:59.645Z,11.2
2023-04-27T20:02:00.349Z,11.2
2023-04-27T20:03:59.827Z,11.1
2023-04-27T20:05:59.810Z,11.1
2023-04-27T20:10:00.096Z,11.1
2023-04-27T20:11:59.658Z,11
2023-04-27T20:13:59.659Z,11
2023-04-27T20:15:59.743Z,11
2023-04-27T20:18:00.059Z,10.9
2023-04-27T20:19:59.647Z,10.9
2023-04-27T20:22:02.769Z,10.9
2023-04-27T20:23:59.622Z,10.9
2023-04-27T20:26:00.080Z,10.8
2023-04-27T20:29:59.665Z,10.9
2023-04-27T20:31:59.719Z,10.7
2023-04-27T20:33:59.752Z,10.7
2023-04-27T20:37:59.653Z,10.6
2023-04-27T20:39:59.622Z,10.6
2023-04-27T20:42:00.482Z,10.5
2023-04-27T20:43:59.647Z,10.5
2023-04-27T20:45:59.650Z,10.5
2023-04-27T20:47:59.705Z,10.5
2023-04-27T20:50:00.293Z,10.5
2023-04-27T20:51:59.637Z,10.5
2023-04-27T20:53:59.660Z,10.4
2023-04-27T20:55:59.642Z,10.4
2023-04-27T20:57:59.638Z,10.3
2023-04-27T20:59:59.652Z,10.2
2023-04-27T21:02:00.037Z,10.2
2023-04-27T21:03:59.667Z,10.1
2023-04-27T21:05:59.640Z,10.1
2023-04-27T21:07:59.664Z,10.1
2023-04-27T21:09:59.662Z,10.1
2023-04-27T21:11:59.632Z,10.1
2023-04-27T21:13:59.666Z,10.2
2023-04-27T21:16:00.496Z,10.2
2023-04-27T21:17:59.772Z,10.2
2023-04-27T21:19:59.669Z,10.2
2023-04-27T21:21:59.620Z,10.2
2023-04-27T21:24:07.643Z,10.2
2023-04-27T21:26:00.145Z,10.3
2023-04-27T21:27:59.632Z,10.4
2023-04-27T21:29:59.640Z,10.5
2023-04-27T21:32:00.521Z,10.6
2023-04-27T21:34:00.037Z,10.5
2023-04-27T21:35:59.659Z,10.6
2023-04-27T21:37:59.629Z,10.5
2023-04-27T21:40:00.158Z,10.5
2023-04-27T21:42:00.150Z,10.5
2023-04-27T21:43:59.657Z,10.6
2023-04-27T21:45:59.699Z,10.5
2023-04-27T21:49:59.652Z,10.5
2023-04-27T21:51:59.622Z,10.5
2023-04-27T21:53:59.625Z,10.5
2023-04-27T21:56:00.609Z,10.4
2023-04-27T21:57:59.636Z,10.5
2023-04-27T21:59:59.657Z,10.5
2023-04-27T22:04:00.417Z,10.4
2023-04-27T22:07:59.653Z,10.4
2023-04-27T22:09:59.645Z,10.4
2023-04-27T22:11:59.669Z,10.4
2023-04-27T22:13:59.671Z,10.4
2023-04-27T22:15:59.676Z,10.4
2023-04-27T22:17:59.671Z,10.3
2023-04-27T22:19:59.679Z,10.4
2023-04-27T22:21:59.642Z,10.3
2023-04-27T22:23:59.674Z,10.3
2023-04-27T22:25:59.664Z,10.3
2023-04-27T22:27:59.645Z,10.2
2023-04-27T22:30:00.582Z,10.1
2023-04-27T22:31:59.802Z,10.2
2023-04-27T22:36:00.172Z,10.2
2023-04-27T22:37:59.671Z,10.1
2023-04-27T22:40:01.036Z,10.1
2023-04-27T22:47:59.710Z,10.1
2023-04-27T22:50:00.229Z,10.1
2023-04-27T22:52:00.525Z,10
2023-04-27T22:54:00.036Z,10
2023-04-27T22:55:59.680Z,10.1
2023-04-27T22:57:59.638Z,10
2023-04-27T22:59:59.665Z,10
2023-04-27T23:01:59.676Z,10.1
2023-04-27T23:03:59.653Z,9.9
2023-04-27T23:08:00.114Z,10
2023-04-27T23:09:59.673Z,10
2023-04-27T23:12:00.103Z,10
2023-04-27T23:13:59.675Z,10
2023-04-27T23:15:59.647Z,10
2023-04-27T23:17:59.702Z,10
2023-04-27T23:19:59.662Z,9.9
2023-04-27T23:21:59.638Z,10
2023-04-27T23:23:59.994Z,10
2023-04-27T23:26:00.154Z,10
2023-04-27T23:28:00.047Z,10
2023-04-27T23:30:00.563Z,10.1
2023-04-27T23:32:00.084Z,10
2023-04-27T23:33:59.662Z,10.1
2023-04-27T23:38:00.079Z,10
2023-04-27T23:39:59.880Z,10
2023-04-27T23:42:00.110Z,10
2023-04-27T23:44:00.327Z,10
2023-04-27T23:45:59.657Z,10
2023-04-27T23:48:00.357Z,9.9
2023-04-27T23:49:59.681Z,9.9
2023-04-27T23:52:00.899Z,9.9
2023-04-27T23:53:59.665Z,9.9
2023-04-27T23:55:59.653Z,9.9
